createdAt,value
2022-12-03T00:01:02.672Z,1024.32
2022-12-03T00:02:02.090Z,1024.36
2022-12-03T00:03:01.481Z,1024.32
2022-12-03T00:04:01.668Z,1024.34
2022-12-03T00:05:01.276Z,1024.39
2022-12-03T00:06:00.986Z,1024.34
2022-12-03T00:07:01.133Z,1024.32
2022-12-03T00:08:01.551Z,1024.27
2022-12-03T00:09:01.875Z,1024.29
2022-12-03T00:10:02.216Z,1024.33
2022-12-03T00:11:01.133Z,1024.29
2022-12-03T00:12:01.262Z,1024.29
2022-12-03T00:13:01.823Z,1024.28
2022-12-03T00:14:01.437Z,1024.26
2022-12-03T00:15:02.171Z,1024.25
2022-12-03T00:16:02.520Z,1024.2
2022-12-03T00:17:01.069Z,1024.24
2022-12-03T00:18:01.182Z,1024.22
2022-12-03T00:19:01.053Z,1024.22
2022-12-03T00:20:01.107Z,1024.24
2022-12-03T00:21:01.088Z,1024.28
2022-12-03T00:22:01.055Z,1024.27
2022-12-03T00:23:01.102Z,1024.22
2022-12-03T00:24:01.124Z,1024.24
2022-12-03T00:25:01.122Z,1024.25
2022-12-03T00:26:01.128Z,1024.23
2022-12-03T00:27:01.527Z,1024.27
2022-12-03T00:28:01.141Z,1024.28
2022-12-03T00:29:01.138Z,1024.24
2022-12-03T00:30:01.148Z,1024.23
2022-12-03T00:31:01.122Z,1024.21
2022-12-03T00:32:01.064Z,1024.2
2022-12-03T00:33:01.073Z,1024.25
2022-12-03T00:34:01.080Z,1024.22
2022-12-03T00:35:04.662Z,1024.23
2022-12-03T00:36:01.478Z,1024.23
2022-12-03T00:37:01.094Z,1024.2
2022-12-03T00:38:01.106Z,1024.21
2022-12-03T00:39:01.137Z,1024.24
2022-12-03T00:40:01.128Z,1024.21
2022-12-03T00:41:01.104Z,1024.19
2022-12-03T00:42:01.125Z,1024.19
2022-12-03T00:43:01.142Z,1024.2
2022-12-03T00:44:01.432Z,1024.14
2022-12-03T00:45:01.135Z,1024.21
2022-12-03T00:46:01.264Z,1024.2
2022-12-03T00:47:01.425Z,1024.21
2022-12-03T00:48:01.050Z,1024.23
2022-12-03T00:49:01.070Z,1024.21
2022-12-03T00:50:01.074Z,1024.21
2022-12-03T00:51:00.758Z,1024.2
2022-12-03T00:52:00.480Z,1024.25
2022-12-03T00:53:00.047Z,1024.22
2022-12-03T00:53:59.602Z,1024.19
2022-12-03T00:55:02.109Z,1024.23
2022-12-03T00:56:02.645Z,1024.22
2022-12-03T00:57:01.408Z,1024.21
2022-12-03T00:58:02.498Z,1024.17
2022-12-03T00:59:02.658Z,1024.17
2022-12-03T01:00:02.572Z,1024.21
2022-12-03T01:01:06.717Z,1024.17
2022-12-03T01:02:01.242Z,1024.13
2022-12-03T01:03:03.935Z,1024.17
2022-12-03T01:04:02.065Z,1024.2
2022-12-03T01:05:01.142Z,1024.16
2022-12-03T01:06:10.659Z,1024.15
2022-12-03T01:07:01.469Z,1024.19
2022-12-03T01:08:01.194Z,1024.17
2022-12-03T01:09:01.902Z,1024.13
2022-12-03T01:10:01.111Z,1024.19
2022-12-03T01:11:14.777Z,1024.18
2022-12-03T01:12:01.066Z,1024.14
2022-12-03T01:13:01.110Z,1024.21
2022-12-03T01:14:01.421Z,1024.19
2022-12-03T01:15:01.502Z,1024.19
2022-12-03T01:16:01.362Z,1024.18
2022-12-03T01:17:01.147Z,1024.24
2022-12-03T01:18:01.142Z,1024.17
2022-12-03T01:19:01.142Z,1024.25
2022-12-03T01:20:01.142Z,1024.24
2022-12-03T01:21:01.162Z,1024.2
2022-12-03T01:22:01.346Z,1024.17
2022-12-03T01:23:01.355Z,1024.22
2022-12-03T01:24:01.060Z,1024.2
2022-12-03T01:25:01.096Z,1024.24
2022-12-03T01:26:01.128Z,1024.16
2022-12-03T01:27:01.110Z,1024.24
2022-12-03T01:28:01.093Z,1024.2
2022-12-03T01:29:01.116Z,1024.21
2022-12-03T01:30:01.119Z,1024.18
2022-12-03T01:31:01.179Z,1024.18
2022-12-03T01:32:01.516Z,1024.18
2022-12-03T01:33:01.516Z,1024.21
2022-12-03T01:34:01.062Z,1024.18
2022-12-03T01:35:01.145Z,1024.17
2022-12-03T01:36:01.153Z,1024.2
2022-12-03T01:37:01.055Z,1024.18
2022-12-03T01:38:01.190Z,1024.16
2022-12-03T01:39:01.060Z,1024.16
2022-12-03T01:40:01.464Z,1024.13
2022-12-03T01:41:01.151Z,1024.13
2022-12-03T01:42:01.107Z,1024.18
2022-12-03T01:43:01.096Z,1024.14
2022-12-03T01:44:01.091Z,1024.15
2022-12-03T01:45:01.140Z,1024.17
2022-12-03T01:46:01.108Z,1024.19
2022-12-03T01:47:01.485Z,1024.13
2022-12-03T01:48:01.166Z,1024.15
2022-12-03T01:49:01.129Z,1024.12
2022-12-03T01:50:01.054Z,1024.16
2022-12-03T01:51:01.037Z,1024.16
2022-12-03T01:52:01.256Z,1024.14
2022-12-03T01:53:01.758Z,1024.14
2022-12-03T01:54:01.791Z,1024.12
2022-12-03T01:55:01.471Z,1024.12
2022-12-03T01:56:01.190Z,1024.1
2022-12-03T01:57:00.920Z,1024.1
2022-12-03T01:58:00.674Z,1024.07
2022-12-03T01:59:00.370Z,1024.11
2022-12-03T01:59:59.971Z,1024.08
2022-12-03T02:00:59.579Z,1024.07
2022-12-03T02:02:01.864Z,1024.04
2022-12-03T02:03:01.119Z,1024.02
2022-12-03T02:04:01.116Z,1024.04
2022-12-03T02:05:01.437Z,1024.03
2022-12-03T02:06:01.512Z,1023.99
2022-12-03T02:07:01.143Z,1023.98
2022-12-03T02:08:01.244Z,1023.97
2022-12-03T02:09:01.058Z,1023.99
2022-12-03T02:10:01.052Z,1023.99
2022-12-03T02:11:01.202Z,1023.98
2022-12-03T02:12:01.485Z,1024
2022-12-03T02:13:02.620Z,1023.97
2022-12-03T02:14:01.364Z,1023.93
2022-12-03T02:15:01.098Z,1023.95
2022-12-03T02:16:01.186Z,1023.93
2022-12-03T02:17:01.103Z,1023.97
2022-12-03T02:18:01.052Z,1023.93
2022-12-03T02:19:01.120Z,1023.98
2022-12-03T02:20:01.132Z,1023.94
2022-12-03T02:21:01.122Z,1023.97
2022-12-03T02:22:01.530Z,1023.98
2022-12-03T02:23:01.149Z,1023.94
2022-12-03T02:24:01.052Z,1023.96
2022-12-03T02:25:01.297Z,1023.96
2022-12-03T02:26:01.065Z,1024
2022-12-03T02:27:01.084Z,1023.97
2022-12-03T02:28:01.086Z,1023.97
2022-12-03T02:29:01.740Z,1023.94
2022-12-03T02:30:01.221Z,1023.97
2022-12-03T02:31:01.365Z,1023.98
2022-12-03T02:32:01.787Z,1023.92
2022-12-03T02:33:02.372Z,1023.94
2022-12-03T02:34:01.916Z,1023.91
2022-12-03T02:35:01.127Z,1023.94
2022-12-03T02:36:03.762Z,1023.97
2022-12-03T02:37:05.063Z,1023.96
2022-12-03T02:38:01.133Z,1023.97
2022-12-03T02:39:01.430Z,1023.98
2022-12-03T02:40:01.517Z,1023.96
2022-12-03T02:41:01.262Z,1023.97
2022-12-03T02:42:08.407Z,1023.94
2022-12-03T02:43:01.156Z,1024
2022-12-03T02:44:01.034Z,1024.02
2022-12-03T02:45:05.148Z,1023.96
2022-12-03T02:46:01.788Z,1023.99
2022-12-03T02:47:10.958Z,1023.96
2022-12-03T02:48:01.481Z,1024.03
2022-12-03T02:49:00.669Z,1024.01
2022-12-03T02:50:00.280Z,1023.96
2022-12-03T02:50:59.868Z,1024.01
2022-12-03T02:52:14.158Z,1023.97
2022-12-03T02:53:01.797Z,1023.99
2022-12-03T02:54:01.683Z,1023.96
2022-12-03T02:55:01.322Z,1023.92
2022-12-03T02:56:01.132Z,1023.91
2022-12-03T02:57:16.631Z,1023.92
2022-12-03T02:58:02.493Z,1023.92
2022-12-03T02:59:01.250Z,1023.95
2022-12-03T03:00:01.123Z,1023.96
2022-12-03T03:01:01.882Z,1023.96
2022-12-03T03:02:01.443Z,1023.97
2022-12-03T03:03:01.606Z,1023.94
2022-12-03T03:04:01.129Z,1023.94
2022-12-03T03:05:01.399Z,1023.97
2022-12-03T03:06:01.486Z,1023.91
2022-12-03T03:07:01.488Z,1023.96
2022-12-03T03:08:01.242Z,1023.95
2022-12-03T03:09:01.917Z,1024.02
2022-12-03T03:10:01.116Z,1023.94
2022-12-03T03:11:01.128Z,1023.95
2022-12-03T03:12:01.155Z,1023.99
2022-12-03T03:13:01.452Z,1024.04
2022-12-03T03:14:02.113Z,1023.98
2022-12-03T03:15:04.435Z,1023.99
2022-12-03T03:16:01.115Z,1023.95
2022-12-03T03:17:01.216Z,1023.96
2022-12-03T03:18:01.077Z,1023.98
2022-12-03T03:19:00.874Z,1023.96
2022-12-03T03:20:01.098Z,1023.94
2022-12-03T03:21:01.085Z,1023.98
2022-12-03T03:22:01.113Z,1023.97
2022-12-03T03:23:01.445Z,1023.96
2022-12-03T03:24:01.526Z,1023.97
2022-12-03T03:25:02.246Z,1023.98
2022-12-03T03:26:01.138Z,1023.96
2022-12-03T03:27:01.140Z,1023.92
2022-12-03T03:28:01.135Z,1023.92
2022-12-03T03:29:01.135Z,1023.91
2022-12-03T03:30:01.141Z,1023.91
2022-12-03T03:31:01.201Z,1023.95
2022-12-03T03:32:01.532Z,1023.91
2022-12-03T03:33:01.062Z,1023.86
2022-12-03T03:34:01.705Z,1023.86
2022-12-03T03:35:01.053Z,1023.84
2022-12-03T03:36:01.072Z,1023.85
2022-12-03T03:37:01.210Z,1023.9
2022-12-03T03:38:01.096Z,1023.86
2022-12-03T03:39:01.103Z,1023.86
2022-12-03T03:40:01.105Z,1023.9
2022-12-03T03:41:01.119Z,1023.85
2022-12-03T03:42:01.066Z,1023.96
2022-12-03T03:43:01.140Z,1023.89
2022-12-03T03:44:01.101Z,1023.92
2022-12-03T03:45:02.040Z,1023.9
2022-12-03T03:46:01.521Z,1023.9
2022-12-03T03:47:01.460Z,1023.89
2022-12-03T03:48:01.056Z,1023.96
2022-12-03T03:49:01.064Z,1023.92
2022-12-03T03:50:01.074Z,1023.9
2022-12-03T03:51:01.068Z,1023.87
2022-12-03T03:52:01.085Z,1023.94
2022-12-03T03:53:01.123Z,1023.89
2022-12-03T03:54:01.194Z,1023.89
2022-12-03T03:55:01.428Z,1023.92
2022-12-03T03:56:01.214Z,1023.94
2022-12-03T03:57:01.123Z,1023.96
2022-12-03T03:58:01.136Z,1023.93
2022-12-03T03:59:00.798Z,1023.97
2022-12-03T04:00:00.408Z,1023.91
2022-12-03T04:01:00.402Z,1023.91
2022-12-03T04:02:00.174Z,1023.91
2022-12-03T04:03:00.027Z,1023.89
2022-12-03T04:03:59.876Z,1023.89
2022-12-03T04:04:59.535Z,1023.82
2022-12-03T04:06:01.727Z,1023.88
2022-12-03T04:07:01.085Z,1023.84
2022-12-03T04:08:01.272Z,1023.78
2022-12-03T04:09:01.200Z,1023.87
2022-12-03T04:10:01.233Z,1023.79
2022-12-03T04:11:01.106Z,1023.81
2022-12-03T04:12:01.126Z,1023.81
2022-12-03T04:13:04.077Z,1023.76
2022-12-03T04:14:01.430Z,1023.79
2022-12-03T04:15:01.050Z,1023.81
2022-12-03T04:16:01.163Z,1023.78
2022-12-03T04:17:01.204Z,1023.76
2022-12-03T04:18:06.056Z,1023.72
2022-12-03T04:19:01.948Z,1023.73
2022-12-03T04:20:01.057Z,1023.74
2022-12-03T04:21:01.099Z,1023.77
2022-12-03T04:22:01.072Z,1023.73
2022-12-03T04:23:09.846Z,1023.72
2022-12-03T04:24:01.765Z,1023.71
2022-12-03T04:25:01.493Z,1023.71
2022-12-03T04:26:01.084Z,1023.81
2022-12-03T04:27:01.500Z,1023.74
2022-12-03T04:28:12.623Z,1023.75
2022-12-03T04:29:01.156Z,1023.73
2022-12-03T04:30:01.826Z,1023.69
2022-12-03T04:31:01.157Z,1023.65
2022-12-03T04:32:00.526Z,1023.69
2022-12-03T04:33:14.724Z,1023.72
2022-12-03T04:34:01.006Z,1023.69
2022-12-03T04:35:01.482Z,1023.66
2022-12-03T04:36:01.359Z,1023.68
2022-12-03T04:37:01.050Z,1023.66
2022-12-03T04:38:01.076Z,1023.63
2022-12-03T04:39:01.067Z,1023.62
2022-12-03T04:40:01.087Z,1023.7
2022-12-03T04:41:01.100Z,1023.66
2022-12-03T04:42:01.276Z,1023.65
2022-12-03T04:43:01.103Z,1023.67
2022-12-03T04:44:01.496Z,1023.64
2022-12-03T04:45:00.777Z,1023.66
2022-12-03T04:46:00.463Z,1023.65
2022-12-03T04:47:00.086Z,1023.67
2022-12-03T04:47:59.675Z,1023.66
2022-12-03T04:49:01.251Z,1023.64
2022-12-03T04:50:01.152Z,1023.69
2022-12-03T04:51:01.175Z,1023.61
2022-12-03T04:52:01.665Z,1023.63
2022-12-03T04:53:01.291Z,1023.61
2022-12-03T04:54:01.060Z,1023.67
2022-12-03T04:55:01.059Z,1023.65
2022-12-03T04:56:01.339Z,1023.59
2022-12-03T04:57:01.048Z,1023.62
2022-12-03T04:58:01.043Z,1023.62
2022-12-03T04:59:01.095Z,1023.61
2022-12-03T05:00:01.110Z,1023.65
2022-12-03T05:01:01.325Z,1023.59
2022-12-03T05:02:01.982Z,1023.58
2022-12-03T05:03:01.561Z,1023.56
2022-12-03T05:04:01.140Z,1023.54
2022-12-03T05:05:01.772Z,1023.53
2022-12-03T05:06:01.426Z,1023.58
2022-12-03T05:07:01.161Z,1023.55
2022-12-03T05:08:01.211Z,1023.56
2022-12-03T05:09:01.150Z,1023.49
2022-12-03T05:10:01.075Z,1023.53
2022-12-03T05:11:01.071Z,1023.48
2022-12-03T05:12:01.082Z,1023.5
2022-12-03T05:13:01.064Z,1023.47
2022-12-03T05:14:01.462Z,1023.53
2022-12-03T05:15:01.089Z,1023.5
2022-12-03T05:16:01.087Z,1023.46
2022-12-03T05:17:01.139Z,1023.46
2022-12-03T05:18:01.389Z,1023.47
2022-12-03T05:19:01.128Z,1023.48
2022-12-03T05:20:01.418Z,1023.47
2022-12-03T05:21:01.526Z,1023.48
2022-12-03T05:22:01.242Z,1023.45
2022-12-03T05:23:01.134Z,1023.45
2022-12-03T05:24:01.141Z,1023.42
2022-12-03T05:25:01.149Z,1023.41
2022-12-03T05:26:01.146Z,1023.44
2022-12-03T05:27:01.480Z,1023.4
2022-12-03T05:28:01.069Z,1023.43
2022-12-03T05:29:01.479Z,1023.37
2022-12-03T05:30:01.087Z,1023.39
2022-12-03T05:31:01.135Z,1023.39
2022-12-03T05:32:01.279Z,1023.41
2022-12-03T05:33:01.972Z,1023.33
2022-12-03T05:34:01.174Z,1023.37
2022-12-03T05:35:01.106Z,1023.33
2022-12-03T05:36:01.110Z,1023.36
2022-12-03T05:37:01.056Z,1023.36
2022-12-03T05:38:01.123Z,1023.32
2022-12-03T05:39:01.126Z,1023.34
2022-12-03T05:40:01.524Z,1023.32
2022-12-03T05:41:01.251Z,1023.33
2022-12-03T05:42:01.154Z,1023.35
2022-12-03T05:43:01.065Z,1023.32
2022-12-03T05:44:01.194Z,1023.33
2022-12-03T05:45:00.823Z,1023.36
2022-12-03T05:46:00.533Z,1023.33
2022-12-03T05:47:00.159Z,1023.34
2022-12-03T05:48:05.298Z,1023.32
2022-12-03T05:49:04.485Z,1023.33
2022-12-03T05:50:01.345Z,1023.33
2022-12-03T05:51:02.342Z,1023.32
2022-12-03T05:52:01.141Z,1023.33
2022-12-03T05:53:01.131Z,1023.31
2022-12-03T05:54:01.134Z,1023.29
2022-12-03T05:55:01.148Z,1023.29
2022-12-03T05:56:01.135Z,1023.28
2022-12-03T05:57:01.141Z,1023.26
2022-12-03T05:58:01.155Z,1023.3
2022-12-03T05:59:01.232Z,1023.3
2022-12-03T06:00:01.791Z,1023.33
2022-12-03T06:01:02.493Z,1023.3
2022-12-03T06:02:01.845Z,1023.31
2022-12-03T06:03:01.228Z,1023.38
2022-12-03T06:04:05.051Z,1023.31
2022-12-03T06:05:01.929Z,1023.33
2022-12-03T06:06:01.475Z,1023.31
2022-12-03T06:07:01.412Z,1023.32
2022-12-03T06:08:01.518Z,1023.3
2022-12-03T06:09:07.001Z,1023.27
2022-12-03T06:10:01.077Z,1023.32
2022-12-03T06:11:01.041Z,1023.29
2022-12-03T06:12:01.151Z,1023.28
2022-12-03T06:13:01.150Z,1023.3
2022-12-03T06:14:10.434Z,1023.29
2022-12-03T06:15:01.076Z,1023.31
2022-12-03T06:16:02.224Z,1023.33
2022-12-03T06:17:04.029Z,1023.32
2022-12-03T06:18:01.074Z,1023.29
2022-12-03T06:19:12.852Z,1023.32
2022-12-03T06:20:01.796Z,1023.34
2022-12-03T06:21:01.433Z,1023.33
2022-12-03T06:22:01.113Z,1023.39
2022-12-03T06:23:01.056Z,1023.32
2022-12-03T06:24:15.748Z,1023.36
2022-12-03T06:25:06.339Z,1023.35
2022-12-03T06:26:01.433Z,1023.32
2022-12-03T06:27:01.539Z,1023.35
2022-12-03T06:28:01.969Z,1023.37
2022-12-03T06:29:01.269Z,1023.33
2022-12-03T06:30:02.491Z,1023.42
2022-12-03T06:31:02.269Z,1023.43
2022-12-03T06:32:01.185Z,1023.39
2022-12-03T06:33:01.062Z,1023.47
2022-12-03T06:34:01.177Z,1023.42
2022-12-03T06:35:01.211Z,1023.46
2022-12-03T06:36:01.186Z,1023.45
2022-12-03T06:37:02.002Z,1023.45
2022-12-03T06:38:01.086Z,1023.44
2022-12-03T06:39:01.192Z,1023.46
2022-12-03T06:40:01.241Z,1023.49
2022-12-03T06:41:01.112Z,1023.45
2022-12-03T06:42:01.127Z,1023.48
2022-12-03T06:43:01.050Z,1023.46
2022-12-03T06:44:01.046Z,1023.44
2022-12-03T06:45:01.424Z,1023.47
2022-12-03T06:46:01.320Z,1023.46
2022-12-03T06:47:01.211Z,1023.46
2022-12-03T06:48:02.249Z,1023.46
2022-12-03T06:49:00.910Z,1023.43
2022-12-03T06:50:01.087Z,1023.41
2022-12-03T06:51:01.089Z,1023.36
2022-12-03T06:52:01.102Z,1023.48
2022-12-03T06:53:01.395Z,1023.41
2022-12-03T06:54:01.524Z,1023.46
2022-12-03T06:55:01.096Z,1023.46
2022-12-03T06:56:01.138Z,1023.44
2022-12-03T06:57:01.808Z,1023.41
2022-12-03T06:58:01.097Z,1023.41
2022-12-03T06:59:01.209Z,1023.41
2022-12-03T07:00:01.118Z,1023.45
2022-12-03T07:01:01.157Z,1023.44
2022-12-03T07:02:01.472Z,1023.41
2022-12-03T07:03:01.464Z,1023.41
2022-12-03T07:04:04.443Z,1023.39
2022-12-03T07:05:01.454Z,1023.42
2022-12-03T07:06:01.765Z,1023.42
2022-12-03T07:07:01.073Z,1023.43
2022-12-03T07:08:01.845Z,1023.43
2022-12-03T07:09:00.775Z,1023.42
2022-12-03T07:10:00.425Z,1023.41
2022-12-03T07:11:00.096Z,1023.37
2022-12-03T07:11:59.773Z,1023.41
2022-12-03T07:13:02.339Z,1023.48
2022-12-03T07:14:04.978Z,1023.47
2022-12-03T07:15:02.099Z,1023.41
2022-12-03T07:16:01.413Z,1023.45
2022-12-03T07:17:00.514Z,1023.45
2022-12-03T07:18:00.146Z,1023.44
2022-12-03T07:18:59.955Z,1023.41
2022-12-03T07:19:59.634Z,1023.44
2022-12-03T07:21:01.979Z,1023.44
2022-12-03T07:22:01.403Z,1023.45
2022-12-03T07:23:01.088Z,1023.46
2022-12-03T07:24:04.298Z,1023.4
2022-12-03T07:25:01.041Z,1023.44
2022-12-03T07:26:01.095Z,1023.45
2022-12-03T07:27:01.136Z,1023.38
2022-12-03T07:28:01.301Z,1023.36
2022-12-03T07:29:00.972Z,1023.41
2022-12-03T07:30:01.054Z,1023.42
2022-12-03T07:31:01.120Z,1023.4
2022-12-03T07:32:01.141Z,1023.37
2022-12-03T07:33:01.135Z,1023.4
2022-12-03T07:34:01.149Z,1023.38
2022-12-03T07:35:01.781Z,1023.38
2022-12-03T07:36:01.863Z,1023.38
2022-12-03T07:37:02.432Z,1023.37
2022-12-03T07:38:02.231Z,1023.39
2022-12-03T07:39:02.089Z,1023.33
2022-12-03T07:40:00.811Z,1023.31
2022-12-03T07:41:00.380Z,1023.32
2022-12-03T07:42:00.088Z,1023.36
2022-12-03T07:42:59.661Z,1023.35
2022-12-03T07:44:01.836Z,1023.32
2022-12-03T07:45:01.802Z,1023.32
2022-12-03T07:46:01.041Z,1023.3
2022-12-03T07:47:01.139Z,1023.3
2022-12-03T07:48:01.340Z,1023.34
2022-12-03T07:49:00.926Z,1023.34
2022-12-03T07:50:02.504Z,1023.33
2022-12-03T07:51:01.052Z,1023.32
2022-12-03T07:52:01.064Z,1023.36
2022-12-03T07:53:01.056Z,1023.32
2022-12-03T07:54:01.065Z,1023.35
2022-12-03T07:55:05.300Z,1023.31
2022-12-03T07:56:01.109Z,1023.28
2022-12-03T07:57:02.253Z,1023.31
2022-12-03T07:58:01.477Z,1023.27
2022-12-03T07:59:01.128Z,1023.32
2022-12-03T08:00:08.221Z,1023.27
2022-12-03T08:01:01.165Z,1023.28
2022-12-03T08:02:02.697Z,1023.3
2022-12-03T08:03:02.547Z,1023.32
2022-12-03T08:04:01.416Z,1023.33
2022-12-03T08:05:10.563Z,1023.32
2022-12-03T08:06:01.251Z,1023.34
2022-12-03T08:07:01.568Z,1023.28
2022-12-03T08:08:01.657Z,1023.26
2022-12-03T08:09:01.538Z,1023.25
2022-12-03T08:10:12.749Z,1023.3
2022-12-03T08:11:01.863Z,1023.29
2022-12-03T08:12:01.743Z,1023.29
2022-12-03T08:13:01.921Z,1023.29
2022-12-03T08:14:01.249Z,1023.31
2022-12-03T08:15:15.407Z,1023.27
2022-12-03T08:16:01.970Z,1023.24
2022-12-03T08:17:01.104Z,1023.24
2022-12-03T08:18:01.341Z,1023.26
2022-12-03T08:19:01.482Z,1023.23
2022-12-03T08:20:17.194Z,1023.26
2022-12-03T08:21:01.127Z,1023.28
2022-12-03T08:22:01.707Z,1023.26
2022-12-03T08:23:00.794Z,1023.23
2022-12-03T08:24:00.427Z,1023.26
2022-12-03T08:25:00.044Z,1023.25
2022-12-03T08:25:59.856Z,1023.28
2022-12-03T08:27:01.858Z,1023.24
2022-12-03T08:28:01.965Z,1023.29
2022-12-03T08:29:01.527Z,1023.28
2022-12-03T08:30:02.202Z,1023.24
2022-12-03T08:31:01.293Z,1023.21
2022-12-03T08:32:02.028Z,1023.2
2022-12-03T08:33:02.237Z,1023.16
2022-12-03T08:34:01.313Z,1023.19
2022-12-03T08:35:01.862Z,1023.22
2022-12-03T08:36:01.116Z,1023.18
2022-12-03T08:37:01.494Z,1023.21
2022-12-03T08:38:01.114Z,1023.16
2022-12-03T08:39:01.144Z,1023.15
2022-12-03T08:40:01.452Z,1023.16
2022-12-03T08:41:01.370Z,1023.18
2022-12-03T08:42:02.426Z,1023.15
2022-12-03T08:43:01.115Z,1023.18
2022-12-03T08:44:01.177Z,1023.2
2022-12-03T08:45:01.048Z,1023.17
2022-12-03T08:46:01.214Z,1023.18
2022-12-03T08:47:08.060Z,1023.19
2022-12-03T08:48:01.411Z,1023.16
2022-12-03T08:49:01.111Z,1023.12
2022-12-03T08:50:03.987Z,1023.17
2022-12-03T08:51:01.125Z,1023.1
2022-12-03T08:52:01.115Z,1023.13
2022-12-03T08:53:01.371Z,1023.15
2022-12-03T08:54:02.383Z,1023.18
2022-12-03T08:55:01.290Z,1023.11
2022-12-03T08:56:02.050Z,1023.13
2022-12-03T08:57:01.053Z,1023.11
2022-12-03T08:58:01.064Z,1023.05
2022-12-03T08:59:01.164Z,1023.14
2022-12-03T09:00:01.154Z,1023.14
2022-12-03T09:01:02.027Z,1023.16
2022-12-03T09:02:01.120Z,1023.18
2022-12-03T09:03:01.103Z,1023.13
2022-12-03T09:04:01.165Z,1023.09
2022-12-03T09:05:01.105Z,1023.13
2022-12-03T09:06:01.438Z,1023.14
2022-12-03T09:07:01.245Z,1023.13
2022-12-03T09:08:01.261Z,1023.15
2022-12-03T09:09:05.259Z,1023.06
2022-12-03T09:10:01.114Z,1023.12
2022-12-03T09:11:01.125Z,1023.08
2022-12-03T09:12:01.250Z,1023.08
2022-12-03T09:13:01.130Z,1023.09
2022-12-03T09:14:01.608Z,1023.1
2022-12-03T09:15:01.152Z,1023.11
2022-12-03T09:16:01.081Z,1023.09
2022-12-03T09:17:01.184Z,1023.01
2022-12-03T09:18:01.079Z,1023.02
2022-12-03T09:19:01.085Z,1023.07
2022-12-03T09:20:01.075Z,1023.04
2022-12-03T09:21:01.471Z,1023.04
2022-12-03T09:22:01.489Z,1023.05
2022-12-03T09:23:01.538Z,1023.05
2022-12-03T09:24:01.147Z,1023.04
2022-12-03T09:25:01.827Z,1023.01
2022-12-03T09:26:00.426Z,1023.07
2022-12-03T09:27:00.120Z,1023.03
2022-12-03T09:27:59.787Z,1022.97
2022-12-03T09:29:01.564Z,1023
2022-12-03T09:30:01.715Z,1022.92
2022-12-03T09:31:01.192Z,1022.95
2022-12-03T09:32:01.897Z,1022.94
2022-12-03T09:33:01.865Z,1022.9
2022-12-03T09:34:01.317Z,1022.92
2022-12-03T09:35:02.503Z,1022.95
2022-12-03T09:36:01.949Z,1022.97
2022-12-03T09:37:01.307Z,1022.92
2022-12-03T09:38:01.943Z,1022.9
2022-12-03T09:39:01.109Z,1022.93
2022-12-03T09:40:01.703Z,1022.92
2022-12-03T09:41:01.115Z,1022.9
2022-12-03T09:42:01.516Z,1022.9
2022-12-03T09:43:01.496Z,1022.93
2022-12-03T09:44:04.728Z,1022.95
2022-12-03T09:45:02.529Z,1022.87
2022-12-03T09:46:03.861Z,1022.94
2022-12-03T09:47:01.148Z,1022.9
2022-12-03T09:48:01.155Z,1022.95
2022-12-03T09:49:01.103Z,1022.93
2022-12-03T09:50:01.112Z,1022.96
2022-12-03T09:51:06.678Z,1023.04
2022-12-03T09:52:02.303Z,1022.96
2022-12-03T09:53:01.385Z,1023.03
2022-12-03T09:54:01.900Z,1022.98
2022-12-03T09:55:01.771Z,1022.99
2022-12-03T09:56:09.497Z,1023
2022-12-03T09:57:01.361Z,1022.96
2022-12-03T09:58:01.477Z,1022.99
2022-12-03T09:59:01.599Z,1022.97
2022-12-03T10:00:01.296Z,1022.97
2022-12-03T10:01:12.779Z,1022.99
2022-12-03T10:02:01.512Z,1023
2022-12-03T10:03:01.296Z,1022.97
2022-12-03T10:04:02.466Z,1022.95
2022-12-03T10:05:02.496Z,1022.93
2022-12-03T10:06:15.907Z,1022.97
2022-12-03T10:07:02.078Z,1022.89
2022-12-03T10:08:01.260Z,1022.9
2022-12-03T10:09:00.727Z,1022.92
2022-12-03T10:10:01.185Z,1022.87
2022-12-03T10:11:00.903Z,1022.92
2022-12-03T10:12:01.148Z,1022.86
2022-12-03T10:13:01.101Z,1022.89
2022-12-03T10:14:01.120Z,1022.84
2022-12-03T10:15:01.062Z,1022.92
2022-12-03T10:16:01.258Z,1022.94
2022-12-03T10:17:01.001Z,1022.93
2022-12-03T10:18:00.822Z,1022.9
2022-12-03T10:19:00.753Z,1022.9
2022-12-03T10:20:00.788Z,1022.93
2022-12-03T10:21:01.430Z,1022.91
2022-12-03T10:22:01.152Z,1022.98
2022-12-03T10:23:01.067Z,1022.93
2022-12-03T10:24:01.064Z,1022.92
2022-12-03T10:25:01.221Z,1022.88
2022-12-03T10:26:01.118Z,1022.88
2022-12-03T10:27:01.093Z,1022.81
2022-12-03T10:28:01.106Z,1022.81
2022-12-03T10:29:00.795Z,1022.81
2022-12-03T10:30:00.606Z,1022.75
2022-12-03T10:31:00.425Z,1022.77
2022-12-03T10:32:00.180Z,1022.8
2022-12-03T10:32:59.804Z,1022.7
2022-12-03T10:34:01.425Z,1022.68
2022-12-03T10:35:02.052Z,1022.68
2022-12-03T10:36:02.050Z,1022.64
2022-12-03T10:37:01.537Z,1022.65
2022-12-03T10:38:01.156Z,1022.63
2022-12-03T10:39:02.000Z,1022.62
2022-12-03T10:40:01.079Z,1022.62
2022-12-03T10:41:01.046Z,1022.6
2022-12-03T10:42:01.053Z,1022.61
2022-12-03T10:43:01.089Z,1022.58
2022-12-03T10:44:01.089Z,1022.57
2022-12-03T10:45:01.217Z,1022.59
2022-12-03T10:46:04.243Z,1022.56
2022-12-03T10:47:02.433Z,1022.5
2022-12-03T10:48:01.806Z,1022.53
2022-12-03T10:49:01.238Z,1022.48
2022-12-03T10:50:01.152Z,1022.5
2022-12-03T10:51:01.254Z,1022.49
2022-12-03T10:52:01.165Z,1022.51
2022-12-03T10:53:01.142Z,1022.47
2022-12-03T10:54:01.045Z,1022.47
2022-12-03T10:55:01.056Z,1022.47
2022-12-03T10:56:01.201Z,1022.41
2022-12-03T10:57:01.125Z,1022.45
2022-12-03T10:58:01.082Z,1022.45
2022-12-03T10:59:01.092Z,1022.46
2022-12-03T11:00:01.539Z,1022.44
2022-12-03T11:01:01.223Z,1022.44
2022-12-03T11:02:01.360Z,1022.44
2022-12-03T11:03:02.135Z,1022.43
2022-12-03T11:04:02.650Z,1022.49
2022-12-03T11:05:01.276Z,1022.44
2022-12-03T11:06:01.471Z,1022.44
2022-12-03T11:07:01.245Z,1022.45
2022-12-03T11:08:01.182Z,1022.48
2022-12-03T11:09:05.427Z,1022.5
2022-12-03T11:10:01.127Z,1022.43
2022-12-03T11:11:01.245Z,1022.45
2022-12-03T11:12:01.170Z,1022.43
2022-12-03T11:13:01.231Z,1022.41
2022-12-03T11:14:01.447Z,1022.38
2022-12-03T11:15:01.467Z,1022.37
2022-12-03T11:16:02.281Z,1022.36
2022-12-03T11:17:01.099Z,1022.34
2022-12-03T11:18:01.044Z,1022.32
2022-12-03T11:19:01.133Z,1022.37
2022-12-03T11:20:01.111Z,1022.35
2022-12-03T11:21:01.218Z,1022.29
2022-12-03T11:22:01.767Z,1022.32
2022-12-03T11:23:01.181Z,1022.38
2022-12-03T11:24:01.148Z,1022.35
2022-12-03T11:25:01.171Z,1022.32
2022-12-03T11:26:01.195Z,1022.31
2022-12-03T11:27:04.752Z,1022.29
2022-12-03T11:28:02.492Z,1022.26
2022-12-03T11:29:01.371Z,1022.27
2022-12-03T11:30:01.050Z,1022.29
2022-12-03T11:31:01.216Z,1022.29
2022-12-03T11:32:06.325Z,1022.29
2022-12-03T11:33:02.000Z,1022.28
2022-12-03T11:34:01.394Z,1022.27
2022-12-03T11:35:01.116Z,1022.26
2022-12-03T11:36:01.105Z,1022.31
2022-12-03T11:37:09.873Z,1022.25
2022-12-03T11:38:01.175Z,1022.26
2022-12-03T11:39:01.510Z,1022.2
2022-12-03T11:40:01.528Z,1022.27
2022-12-03T11:41:02.587Z,1022.24
2022-12-03T11:42:13.022Z,1022.2
2022-12-03T11:43:01.060Z,1022.25
2022-12-03T11:44:01.055Z,1022.22
2022-12-03T11:45:01.075Z,1022.2
2022-12-03T11:46:04.211Z,1022.21
2022-12-03T11:47:15.619Z,1022.24
2022-12-03T11:48:01.473Z,1022.22
2022-12-03T11:49:01.100Z,1022.19
2022-12-03T11:50:00.749Z,1022.14
2022-12-03T11:51:00.379Z,1022.17
2022-12-03T11:52:00.095Z,1022.23
2022-12-03T11:52:59.986Z,1022.22
2022-12-03T11:53:59.591Z,1022.2
2022-12-03T11:55:01.162Z,1022.21
2022-12-03T11:56:04.521Z,1022.17
2022-12-03T11:57:01.518Z,1022.12
2022-12-03T11:58:01.190Z,1022.14
2022-12-03T11:59:01.179Z,1022.18
2022-12-03T12:00:01.787Z,1022.17
2022-12-03T12:01:01.885Z,1022.16
2022-12-03T12:02:01.758Z,1022.12
2022-12-03T12:03:01.371Z,1022.1
2022-12-03T12:04:02.251Z,1022.08
2022-12-03T12:05:02.096Z,1022.09
2022-12-03T12:06:02.080Z,1022.1
2022-12-03T12:07:01.108Z,1022.1
2022-12-03T12:08:01.364Z,1022.1
2022-12-03T12:09:01.108Z,1022.08